sensor_id;sensor_type;location;lat;lon;timestamp;P1;durP1;ratioP1;P2;durP2;ratioP2
3700;SDS011;1866;48.374;10.766;2023-04-24T00:01:21;98.37;;;6.40;;
3700;SDS011;1866;48.374;10.766;2023-04-24T00:03:48;97.97;;;6.23;;
3700;SDS011;1866;48.374;10.766;2023-04-24T00:06:15;98.60;;;6.40;;
3700;SDS011;1866;48.374;10.766;2023-04-24T00:08:42;98.13;;;6.40;;
3700;SDS011;1866;48.374;10.766;2023-04-24T00:11:09;101.67;;;6.70;;
3700;SDS011;1866;48.374;10.766;2023-04-24T00:13:37;104.10;;;6.63;;
3700;SDS011;1866;48.374;10.766;2023-04-24T00:16:05;102.20;;;6.53;;
3700;SDS011;1866;48.374;10.766;2023-04-24T00:18:32;98.57;;;6.60;;
3700;SDS011;1866;48.374;10.766;2023-04-24T00:20:59;97.87;;;6.37;;
3700;SDS011;1866;48.374;10.766;2023-04-24T00:23:26;100.30;;;6.60;;
3700;SDS011;1866;48.374;10.766;2023-04-24T00:25:52;98.77;;;6.43;;
3700;SDS011;1866;48.374;10.766;2023-04-24T00:28:19;97.87;;;6.23;;
3700;SDS011;1866;48.374;10.766;2023-04-24T00:30:46;97.80;;;6.27;;
3700;SDS011;1866;48.374;10.766;2023-04-24T00:33:14;99.43;;;6.40;;
3700;SDS011;1866;48.374;10.766;2023-04-24T00:35:42;97.70;;;6.53;;
3700;SDS011;1866;48.374;10.766;2023-04-24T00:38:08;98.17;;;6.37;;
3700;SDS011;1866;48.374;10.766;2023-04-24T00:40:35;98.20;;;6.40;;
3700;SDS011;1866;48.374;10.766;2023-04-24T00:43:02;98.80;;;6.60;;
3700;SDS011;1866;48.374;10.766;2023-04-24T00:45:29;99.47;;;6.40;;
3700;SDS011;1866;48.374;10.766;2023-04-24T00:47:56;97.80;;;6.33;;
3700;SDS011;1866;48.374;10.766;2023-04-24T00:50:25;98.17;;;6.37;;
3700;SDS011;1866;48.374;10.766;2023-04-24T00:52:52;101.47;;;6.50;;
3700;SDS011;1866;48.374;10.766;2023-04-24T00:55:19;97.10;;;6.27;;
3700;SDS011;1866;48.374;10.766;2023-04-24T00:57:46;97.67;;;6.43;;
3700;SDS011;1866;48.374;10.766;2023-04-24T01:00:14;97.80;;;6.40;;
3700;SDS011;1866;48.374;10.766;2023-04-24T01:02:44;97.83;;;6.33;;
3700;SDS011;1866;48.374;10.766;2023-04-24T01:05:11;98.47;;;6.37;;
3700;SDS011;1866;48.374;10.766;2023-04-24T01:07:42;98.77;;;6.47;;
3700;SDS011;1866;48.374;10.766;2023-04-24T01:10:12;97.97;;;6.27;;
3700;SDS011;1866;48.374;10.766;2023-04-24T01:12:40;97.90;;;6.27;;
3700;SDS011;1866;48.374;10.766;2023-04-24T01:15:08;97.80;;;6.13;;
3700;SDS011;1866;48.374;10.766;2023-04-24T01:17:35;98.27;;;6.30;;
3700;SDS011;1866;48.374;10.766;2023-04-24T01:20:03;97.47;;;6.07;;
3700;SDS011;1866;48.374;10.766;2023-04-24T01:22:33;97.87;;;6.77;;
3700;SDS011;1866;48.374;10.766;2023-04-24T01:25:00;97.80;;;6.27;;
3700;SDS011;1866;48.374;10.766;2023-04-24T01:27:27;98.10;;;6.57;;
3700;SDS011;1866;48.374;10.766;2023-04-24T01:29:54;98.07;;;6.43;;
3700;SDS011;1866;48.374;10.766;2023-04-24T01:32:21;98.87;;;6.40;;
3700;SDS011;1866;48.374;10.766;2023-04-24T01:34:48;97.70;;;6.33;;
3700;SDS011;1866;48.374;10.766;2023-04-24T01:37:15;98.00;;;6.40;;
3700;SDS011;1866;48.374;10.766;2023-04-24T01:39:43;97.37;;;6.27;;
3700;SDS011;1866;48.374;10.766;2023-04-24T01:42:10;98.47;;;6.33;;
3700;SDS011;1866;48.374;10.766;2023-04-24T01:44:39;99.40;;;6.90;;
3700;SDS011;1866;48.374;10.766;2023-04-24T01:47:06;100.10;;;6.33;;
3700;SDS011;1866;48.374;10.766;2023-04-24T01:49:33;97.90;;;6.27;;
3700;SDS011;1866;48.374;10.766;2023-04-24T01:52:00;98.50;;;6.73;;
3700;SDS011;1866;48.374;10.766;2023-04-24T01:54:27;99.67;;;6.50;;
3700;SDS011;1866;48.374;10.766;2023-04-24T01:56:56;98.30;;;6.37;;
3700;SDS011;1866;48.374;10.766;2023-04-24T01:59:23;98.10;;;6.43;;
3700;SDS011;1866;48.374;10.766;2023-04-24T02:01:51;97.77;;;6.30;;
3700;SDS011;1866;48.374;10.766;2023-04-24T02:04:18;99.87;;;7.10;;
3700;SDS011;1866;48.374;10.766;2023-04-24T02:06:44;98.37;;;6.60;;
3700;SDS011;1866;48.374;10.766;2023-04-24T02:09:11;98.37;;;6.73;;
3700;SDS011;1866;48.374;10.766;2023-04-24T02:11:38;98.60;;;6.30;;
3700;SDS011;1866;48.374;10.766;2023-04-24T02:14:06;98.70;;;6.43;;
3700;SDS011;1866;48.374;10.766;2023-04-24T02:16:33;97.73;;;6.30;;
3700;SDS011;1866;48.374;10.766;2023-04-24T02:19:00;98.30;;;6.80;;
3700;SDS011;1866;48.374;10.766;2023-04-24T02:21:27;98.63;;;6.70;;
3700;SDS011;1866;48.374;10.766;2023-04-24T02:23:56;98.30;;;6.40;;
3700;SDS011;1866;48.374;10.766;2023-04-24T02:26:23;97.57;;;6.40;;
3700;SDS011;1866;48.374;10.766;2023-04-24T02:28:50;97.87;;;6.50;;
3700;SDS011;1866;48.374;10.766;2023-04-24T02:31:18;97.67;;;6.37;;
3700;SDS011;1866;48.374;10.766;2023-04-24T02:33:45;97.87;;;6.43;;
3700;SDS011;1866;48.374;10.766;2023-04-24T02:36:11;97.90;;;6.53;;
3700;SDS011;1866;48.374;10.766;2023-04-24T02:38:39;97.80;;;6.27;;
3700;SDS011;1866;48.374;10.766;2023-04-24T02:41:06;98.63;;;6.53;;
3700;SDS011;1866;48.374;10.766;2023-04-24T02:43:32;97.87;;;6.50;;
3700;SDS011;1866;48.374;10.766;2023-04-24T02:45:59;98.20;;;6.50;;
3700;SDS011;1866;48.374;10.766;2023-04-24T02:48:27;97.97;;;6.50;;
3700;SDS011;1866;48.374;10.766;2023-04-24T02:50:54;100.47;;;6.70;;
3700;SDS011;1866;48.374;10.766;2023-04-24T02:53:22;98.50;;;6.73;;
3700;SDS011;1866;48.374;10.766;2023-04-24T02:55:49;97.90;;;6.60;;
3700;SDS011;1866;48.374;10.766;2023-04-24T02:58:16;98.40;;;6.60;;
3700;SDS011;1866;48.374;10.766;2023-04-24T03:00:44;98.10;;;6.57;;
3700;SDS011;1866;48.374;10.766;2023-04-24T03:03:11;98.20;;;6.70;;
3700;SDS011;1866;48.374;10.766;2023-04-24T03:05:40;98.87;;;6.70;;
3700;SDS011;1866;48.374;10.766;2023-04-24T03:08:07;98.97;;;6.43;;
3700;SDS011;1866;48.374;10.766;2023-04-24T03:10:33;98.20;;;6.50;;
3700;SDS011;1866;48.374;10.766;2023-04-24T03:13:00;97.97;;;6.47;;
3700;SDS011;1866;48.374;10.766;2023-04-24T03:15:27;98.27;;;6.60;;
3700;SDS011;1866;48.374;10.766;2023-04-24T03:17:54;103.57;;;7.63;;
3700;SDS011;1866;48.374;10.766;2023-04-24T03:20:21;99.17;;;6.93;;
3700;SDS011;1866;48.374;10.766;2023-04-24T03:22:49;99.97;;;7.10;;
3700;SDS011;1866;48.374;10.766;2023-04-24T03:25:16;98.27;;;6.87;;
3700;SDS011;1866;48.374;10.766;2023-04-24T03:27:43;103.50;;;7.40;;
3700;SDS011;1866;48.374;10.766;2023-04-24T03:30:10;99.03;;;6.70;;
3700;SDS011;1866;48.374;10.766;2023-04-24T03:32:37;98.83;;;6.90;;
3700;SDS011;1866;48.374;10.766;2023-04-24T03:35:04;97.77;;;6.43;;
3700;SDS011;1866;48.374;10.766;2023-04-24T03:37:32;98.67;;;6.80;;
3700;SDS011;1866;48.374;10.766;2023-04-24T03:40:00;98.60;;;6.63;;
3700;SDS011;1866;48.374;10.766;2023-04-24T03:42:28;101.90;;;6.63;;
3700;SDS011;1866;48.374;10.766;2023-04-24T03:44:55;99.17;;;6.60;;
3700;SDS011;1866;48.374;10.766;2023-04-24T03:47:22;98.07;;;6.63;;
3700;SDS011;1866;48.374;10.766;2023-04-24T03:49:48;98.00;;;6.53;;
3700;SDS011;1866;48.374;10.766;2023-04-24T03:52:16;97.87;;;6.53;;
3700;SDS011;1866;48.374;10.766;2023-04-24T03:54:42;98.57;;;6.60;;
3700;SDS011;1866;48.374;10.766;2023-04-24T03:57:11;99.10;;;7.13;;
3700;SDS011;1866;48.374;10.766;2023-04-24T03:59:37;98.37;;;7.10;;
3700;SDS011;1866;48.374;10.766;2023-04-24T04:02:04;97.93;;;6.70;;
3700;SDS011;1866;48.374;10.766;2023-04-24T04:04:31;98.97;;;6.90;;
3700;SDS011;1866;48.374;10.766;2023-04-24T04:06:58;97.80;;;6.57;;
3700;SDS011;1866;48.374;10.766;2023-04-24T04:09:26;98.93;;;6.63;;
3700;SDS011;1866;48.374;10.766;2023-04-24T04:11:53;98.27;;;6.70;;
3700;SDS011;1866;48.374;10.766;2023-04-24T04:14:21;99.77;;;7.13;;
3700;SDS011;1866;48.374;10.766;2023-04-24T04:16:48;98.17;;;6.90;;
3700;SDS011;1866;48.374;10.766;2023-04-24T04:19:16;98.97;;;7.47;;
3700;SDS011;1866;48.374;10.766;2023-04-24T04:21:43;98.00;;;6.77;;
3700;SDS011;1866;48.374;10.766;2023-04-24T04:24:10;98.97;;;7.00;;
3700;SDS011;1866;48.374;10.766;2023-04-24T04:26:37;97.80;;;6.67;;
3700;SDS011;1866;48.374;10.766;2023-04-24T04:29:05;98.17;;;6.93;;
3700;SDS011;1866;48.374;10.766;2023-04-24T04:31:35;104.40;;;7.80;;
3700;SDS011;1866;48.374;10.766;2023-04-24T04:34:01;98.27;;;6.80;;
3700;SDS011;1866;48.374;10.766;2023-04-24T04:36:28;98.00;;;6.97;;
3700;SDS011;1866;48.374;10.766;2023-04-24T04:38:56;98.60;;;7.10;;
3700;SDS011;1866;48.374;10.766;2023-04-24T04:41:24;99.57;;;7.17;;
3700;SDS011;1866;48.374;10.766;2023-04-24T04:43:51;97.83;;;6.90;;
3700;SDS011;1866;48.374;10.766;2023-04-24T04:46:18;98.37;;;6.90;;
3700;SDS011;1866;48.374;10.766;2023-04-24T04:48:46;97.80;;;6.83;;
3700;SDS011;1866;48.374;10.766;2023-04-24T04:51:13;102.50;;;6.83;;
3700;SDS011;1866;48.374;10.766;2023-04-24T04:53:40;99.60;;;7.33;;
3700;SDS011;1866;48.374;10.766;2023-04-24T04:56:07;100.00;;;7.43;;
3700;SDS011;1866;48.374;10.766;2023-04-24T04:58:34;97.73;;;6.90;;
3700;SDS011;1866;48.374;10.766;2023-04-24T05:01:01;108.63;;;7.53;;
3700;SDS011;1866;48.374;10.766;2023-04-24T05:03:28;98.10;;;6.87;;
3700;SDS011;1866;48.374;10.766;2023-04-24T05:05:56;99.97;;;7.50;;
3700;SDS011;1866;48.374;10.766;2023-04-24T05:08:23;100.10;;;6.90;;
3700;SDS011;1866;48.374;10.766;2023-04-24T05:10:50;99.77;;;7.33;;
3700;SDS011;1866;48.374;10.766;2023-04-24T05:13:17;100.00;;;7.67;;
3700;SDS011;1866;48.374;10.766;2023-04-24T05:15:44;101.50;;;8.17;;
3700;SDS011;1866;48.374;10.766;2023-04-24T05:18:11;99.63;;;7.53;;
3700;SDS011;1866;48.374;10.766;2023-04-24T05:20:37;99.23;;;7.40;;
3700;SDS011;1866;48.374;10.766;2023-04-24T05:23:06;99.90;;;7.50;;
3700;SDS011;1866;48.374;10.766;2023-04-24T05:25:33;99.20;;;7.40;;
3700;SDS011;1866;48.374;10.766;2023-04-24T05:28:00;98.50;;;7.03;;
3700;SDS011;1866;48.374;10.766;2023-04-24T05:30:27;99.50;;;7.40;;
3700;SDS011;1866;48.374;10.766;2023-04-24T05:32:54;99.80;;;7.50;;
3700;SDS011;1866;48.374;10.766;2023-04-24T05:35:21;100.30;;;7.37;;
3700;SDS011;1866;48.374;10.766;2023-04-24T05:37:47;100.97;;;7.37;;
3700;SDS011;1866;48.374;10.766;2023-04-24T05:40:16;99.07;;;7.00;;
3700;SDS011;1866;48.374;10.766;2023-04-24T05:42:43;99.17;;;7.07;;
3700;SDS011;1866;48.374;10.766;2023-04-24T05:45:10;99.70;;;6.83;;
3700;SDS011;1866;48.374;10.766;2023-04-24T05:47:41;98.50;;;6.97;;
3700;SDS011;1866;48.374;10.766;2023-04-24T05:50:09;98.97;;;7.17;;
3700;SDS011;1866;48.374;10.766;2023-04-24T05:52:37;103.50;;;7.07;;
3700;SDS011;1866;48.374;10.766;2023-04-24T05:55:04;100.20;;;7.57;;
3700;SDS011;1866;48.374;10.766;2023-04-24T05:57:34;98.53;;;6.77;;
3700;SDS011;1866;48.374;10.766;2023-04-24T06:00:00;100.50;;;7.23;;
3700;SDS011;1866;48.374;10.766;2023-04-24T06:02:29;101.10;;;7.23;;
3700;SDS011;1866;48.374;10.766;2023-04-24T06:04:57;98.90;;;7.00;;
3700;SDS011;1866;48.374;10.766;2023-04-24T06:07:25;99.70;;;7.17;;
3700;SDS011;1866;48.374;10.766;2023-04-24T06:09:52;99.20;;;7.10;;
3700;SDS011;1866;48.374;10.766;2023-04-24T06:12:19;98.60;;;6.67;;
3700;SDS011;1866;48.374;10.766;2023-04-24T06:14:47;98.83;;;6.73;;
3700;SDS011;1866;48.374;10.766;2023-04-24T06:17:14;99.00;;;6.57;;
3700;SDS011;1866;48.374;10.766;2023-04-24T06:19:41;98.50;;;6.37;;
3700;SDS011;1866;48.374;10.766;2023-04-24T06:22:08;98.60;;;6.73;;
3700;SDS011;1866;48.374;10.766;2023-04-24T06:24:35;99.00;;;6.43;;
3700;SDS011;1866;48.374;10.766;2023-04-24T06:27:02;98.23;;;6.37;;
3700;SDS011;1866;48.374;10.766;2023-04-24T06:29:29;98.10;;;6.13;;
3700;SDS011;1866;48.374;10.766;2023-04-24T06:31:57;98.23;;;6.30;;
3700;SDS011;1866;48.374;10.766;2023-04-24T06:34:24;98.10;;;6.20;;
3700;SDS011;1866;48.374;10.766;2023-04-24T06:36:51;98.53;;;6.57;;
3700;SDS011;1866;48.374;10.766;2023-04-24T06:39:18;99.17;;;6.40;;
3700;SDS011;1866;48.374;10.766;2023-04-24T06:41:44;98.87;;;6.63;;
3700;SDS011;1866;48.374;10.766;2023-04-24T06:44:11;97.77;;;6.10;;
3700;SDS011;1866;48.374;10.766;2023-04-24T06:46:39;98.07;;;6.00;;
3700;SDS011;1866;48.374;10.766;2023-04-24T06:49:08;101.93;;;7.30;;
3700;SDS011;1866;48.374;10.766;2023-04-24T06:51:34;98.70;;;6.20;;
3700;SDS011;1866;48.374;10.766;2023-04-24T06:54:01;98.07;;;6.23;;
3700;SDS011;1866;48.374;10.766;2023-04-24T06:56:28;102.37;;;6.10;;
3700;SDS011;1866;48.374;10.766;2023-04-24T06:58:55;97.70;;;5.97;;
3700;SDS011;1866;48.374;10.766;2023-04-24T07:01:22;97.97;;;5.97;;
3700;SDS011;1866;48.374;10.766;2023-04-24T07:03:48;98.00;;;6.20;;
3700;SDS011;1866;48.374;10.766;2023-04-24T07:06:17;97.87;;;6.23;;
3700;SDS011;1866;48.374;10.766;2023-04-24T07:08:46;98.67;;;6.10;;
3700;SDS011;1866;48.374;10.766;2023-04-24T07:11:13;97.80;;;5.77;;
3700;SDS011;1866;48.374;10.766;2023-04-24T07:13:40;97.67;;;6.07;;
3700;SDS011;1866;48.374;10.766;2023-04-24T07:16:07;98.07;;;5.87;;
3700;SDS011;1866;48.374;10.766;2023-04-24T07:18:34;97.63;;;5.83;;
3700;SDS011;1866;48.374;10.766;2023-04-24T07:21:02;97.30;;;5.73;;
3700;SDS011;1866;48.374;10.766;2023-04-24T07:23:30;97.80;;;5.97;;
3700;SDS011;1866;48.374;10.766;2023-04-24T07:25:57;97.17;;;5.87;;
3700;SDS011;1866;48.374;10.766;2023-04-24T07:28:24;97.30;;;5.97;;
3700;SDS011;1866;48.374;10.766;2023-04-24T07:30:51;99.83;;;6.23;;
3700;SDS011;1866;48.374;10.766;2023-04-24T07:33:19;98.27;;;6.10;;
3700;SDS011;1866;48.374;10.766;2023-04-24T07:35:45;100.00;;;6.30;;
3700;SDS011;1866;48.374;10.766;2023-04-24T07:38:12;98.07;;;6.20;;
3700;SDS011;1866;48.374;10.766;2023-04-24T07:40:41;98.33;;;6.37;;
3700;SDS011;1866;48.374;10.766;2023-04-24T07:43:07;98.30;;;6.10;;
3700;SDS011;1866;48.374;10.766;2023-04-24T07:45:34;99.57;;;6.50;;
3700;SDS011;1866;48.374;10.766;2023-04-24T07:48:02;98.07;;;5.77;;
3700;SDS011;1866;48.374;10.766;2023-04-24T07:50:29;102.63;;;7.63;;
3700;SDS011;1866;48.374;10.766;2023-04-24T07:52:56;97.83;;;6.10;;
3700;SDS011;1866;48.374;10.766;2023-04-24T07:55:23;97.97;;;5.87;;
3700;SDS011;1866;48.374;10.766;2023-04-24T07:57:51;98.27;;;5.77;;
3700;SDS011;1866;48.374;10.766;2023-04-24T08:00:18;98.53;;;6.07;;
3700;SDS011;1866;48.374;10.766;2023-04-24T08:02:45;97.90;;;5.93;;
3700;SDS011;1866;48.374;10.766;2023-04-24T08:05:12;98.27;;;5.90;;
3700;SDS011;1866;48.374;10.766;2023-04-24T08:07:39;98.00;;;5.90;;
3700;SDS011;1866;48.374;10.766;2023-04-24T08:10:09;98.27;;;5.63;;
3700;SDS011;1866;48.374;10.766;2023-04-24T08:12:36;99.00;;;6.07;;
3700;SDS011;1866;48.374;10.766;2023-04-24T08:15:05;97.97;;;5.90;;
3700;SDS011;1866;48.374;10.766;2023-04-24T08:17:33;98.30;;;5.67;;
3700;SDS011;1866;48.374;10.766;2023-04-24T08:20:00;99.97;;;5.77;;
3700;SDS011;1866;48.374;10.766;2023-04-24T08:22:27;98.27;;;5.50;;
3700;SDS011;1866;48.374;10.766;2023-04-24T08:24:54;97.80;;;5.47;;
3700;SDS011;1866;48.374;10.766;2023-04-24T08:27:22;98.37;;;5.50;;
3700;SDS011;1866;48.374;10.766;2023-04-24T08:29:49;100.00;;;5.90;;
3700;SDS011;1866;48.374;10.766;2023-04-24T08:32:17;97.87;;;5.53;;
3700;SDS011;1866;48.374;10.766;2023-04-24T08:34:44;98.90;;;5.60;;
3700;SDS011;1866;48.374;10.766;2023-04-24T08:37:11;97.90;;;5.57;;
3700;SDS011;1866;48.374;10.766;2023-04-24T08:39:38;99.30;;;5.20;;
3700;SDS011;1866;48.374;10.766;2023-04-24T08:42:05;98.43;;;5.20;;
3700;SDS011;1866;48.374;10.766;2023-04-24T08:44:33;97.57;;;5.30;;
3700;SDS011;1866;48.374;10.766;2023-04-24T08:47:02;98.03;;;5.50;;
3700;SDS011;1866;48.374;10.766;2023-04-24T08:49:30;97.90;;;5.20;;
3700;SDS011;1866;48.374;10.766;2023-04-24T08:51:57;101.57;;;5.27;;
3700;SDS011;1866;48.374;10.766;2023-04-24T08:54:25;98.80;;;5.07;;
3700;SDS011;1866;48.374;10.766;2023-04-24T08:56:53;97.80;;;4.97;;
3700;SDS011;1866;48.374;10.766;2023-04-24T08:59:24;98.77;;;5.57;;
3700;SDS011;1866;48.374;10.766;2023-04-24T09:01:50;97.67;;;5.37;;
3700;SDS011;1866;48.374;10.766;2023-04-24T09:04:18;97.80;;;5.33;;
3700;SDS011;1866;48.374;10.766;2023-04-24T09:06:48;97.90;;;5.07;;
3700;SDS011;1866;48.374;10.766;2023-04-24T09:09:15;103.77;;;5.27;;
3700;SDS011;1866;48.374;10.766;2023-04-24T09:11:43;98.40;;;5.20;;
3700;SDS011;1866;48.374;10.766;2023-04-24T09:14:10;97.60;;;5.23;;
3700;SDS011;1866;48.374;10.766;2023-04-24T09:16:37;99.97;;;5.30;;
3700;SDS011;1866;48.374;10.766;2023-04-24T09:19:04;97.97;;;5.13;;
3700;SDS011;1866;48.374;10.766;2023-04-24T09:21:31;98.87;;;5.30;;
3700;SDS011;1866;48.374;10.766;2023-04-24T09:24:00;98.53;;;5.60;;
3700;SDS011;1866;48.374;10.766;2023-04-24T09:26:29;99.17;;;5.50;;
3700;SDS011;1866;48.374;10.766;2023-04-24T09:28:58;102.20;;;5.73;;
3700;SDS011;1866;48.374;10.766;2023-04-24T09:31:26;100.87;;;5.70;;
3700;SDS011;1866;48.374;10.766;2023-04-24T09:33:54;98.73;;;5.47;;
3700;SDS011;1866;48.374;10.766;2023-04-24T09:36:29;98.33;;;5.07;;
3700;SDS011;1866;48.374;10.766;2023-04-24T09:38:58;100.10;;;5.17;;
3700;SDS011;1866;48.374;10.766;2023-04-24T09:41:27;98.20;;;5.10;;
3700;SDS011;1866;48.374;10.766;2023-04-24T09:43:55;101.93;;;5.30;;
3700;SDS011;1866;48.374;10.766;2023-04-24T09:46:29;98.37;;;5.33;;
3700;SDS011;1866;48.374;10.766;2023-04-24T09:48:56;99.60;;;5.80;;
3700;SDS011;1866;48.374;10.766;2023-04-24T09:51:33;98.40;;;5.30;;
3700;SDS011;1866;48.374;10.766;2023-04-24T09:54:03;98.13;;;5.40;;
3700;SDS011;1866;48.374;10.766;2023-04-24T09:56:32;99.07;;;5.50;;
3700;SDS011;1866;48.374;10.766;2023-04-24T09:59:06;98.23;;;5.50;;
3700;SDS011;1866;48.374;10.766;2023-04-24T10:01:33;98.13;;;5.23;;
3700;SDS011;1866;48.374;10.766;2023-04-24T10:04:01;99.77;;;5.10;;
3700;SDS011;1866;48.374;10.766;2023-04-24T10:06:32;97.33;;;5.10;;
3700;SDS011;1866;48.374;10.766;2023-04-24T10:08:59;97.57;;;4.90;;
3700;SDS011;1866;48.374;10.766;2023-04-24T10:11:28;97.67;;;5.17;;
3700;SDS011;1866;48.374;10.766;2023-04-24T10:13:56;100.90;;;6.17;;
3700;SDS011;1866;48.374;10.766;2023-04-24T10:16:23;97.17;;;5.17;;
3700;SDS011;1866;48.374;10.766;2023-04-24T10:18:52;97.77;;;5.40;;
3700;SDS011;1866;48.374;10.766;2023-04-24T10:21:19;97.67;;;5.33;;
3700;SDS011;1866;48.374;10.766;2023-04-24T10:23:46;97.87;;;5.53;;
3700;SDS011;1866;48.374;10.766;2023-04-24T10:26:15;98.20;;;5.60;;
3700;SDS011;1866;48.374;10.766;2023-04-24T10:28:46;98.07;;;5.60;;
3700;SDS011;1866;48.374;10.766;2023-04-24T10:31:13;97.40;;;5.03;;
3700;SDS011;1866;48.374;10.766;2023-04-24T10:33:41;98.37;;;5.20;;
3700;SDS011;1866;48.374;10.766;2023-04-24T10:36:09;97.50;;;5.10;;
3700;SDS011;1866;48.374;10.766;2023-04-24T10:38:39;98.60;;;5.50;;
3700;SDS011;1866;48.374;10.766;2023-04-24T10:41:08;98.07;;;5.17;;
3700;SDS011;1866;48.374;10.766;2023-04-24T10:43:40;97.83;;;4.97;;
3700;SDS011;1866;48.374;10.766;2023-04-24T10:46:10;97.90;;;5.23;;
3700;SDS011;1866;48.374;10.766;2023-04-24T10:48:41;97.83;;;5.20;;
3700;SDS011;1866;48.374;10.766;2023-04-24T10:51:11;98.57;;;5.50;;
3700;SDS011;1866;48.374;10.766;2023-04-24T10:53:39;104.40;;;7.27;;
3700;SDS011;1866;48.374;10.766;2023-04-24T10:56:06;101.10;;;6.07;;
3700;SDS011;1866;48.374;10.766;2023-04-24T10:58:36;99.10;;;6.03;;
3700;SDS011;1866;48.374;10.766;2023-04-24T11:01:05;98.93;;;5.30;;
3700;SDS011;1866;48.374;10.766;2023-04-24T11:03:34;98.50;;;5.50;;
3700;SDS011;1866;48.374;10.766;2023-04-24T11:06:02;99.27;;;5.50;;
3700;SDS011;1866;48.374;10.766;2023-04-24T11:08:31;98.17;;;5.40;;
3700;SDS011;1866;48.374;10.766;2023-04-24T11:11:03;104.17;;;5.07;;
3700;SDS011;1866;48.374;10.766;2023-04-24T11:16:31;97.90;;;4.83;;
3700;SDS011;1866;48.374;10.766;2023-04-24T11:19:04;98.50;;;5.00;;
3700;SDS011;1866;48.374;10.766;2023-04-24T11:21:39;98.17;;;4.83;;
3700;SDS011;1866;48.374;10.766;2023-04-24T11:24:24;97.90;;;4.97;;
3700;SDS011;1866;48.374;10.766;2023-04-24T11:26:52;98.57;;;5.20;;
3700;SDS011;1866;48.374;10.766;2023-04-24T11:29:20;98.10;;;4.63;;
3700;SDS011;1866;48.374;10.766;2023-04-24T11:31:47;98.70;;;5.00;;
3700;SDS011;1866;48.374;10.766;2023-04-24T11:34:18;99.30;;;5.30;;
3700;SDS011;1866;48.374;10.766;2023-04-24T11:36:45;97.60;;;5.10;;
3700;SDS011;1866;48.374;10.766;2023-04-24T11:39:13;98.40;;;5.20;;
3700;SDS011;1866;48.374;10.766;2023-04-24T11:41:40;99.40;;;5.30;;
3700;SDS011;1866;48.374;10.766;2023-04-24T11:44:08;100.57;;;5.20;;
3700;SDS011;1866;48.374;10.766;2023-04-24T11:46:36;106.53;;;6.07;;
3700;SDS011;1866;48.374;10.766;2023-04-24T11:49:05;98.33;;;5.20;;
3700;SDS011;1866;48.374;10.766;2023-04-24T11:51:33;101.27;;;5.37;;
3700;SDS011;1866;48.374;10.766;2023-04-24T11:54:01;97.87;;;4.97;;
3700;SDS011;1866;48.374;10.766;2023-04-24T11:56:28;99.67;;;6.10;;
3700;SDS011;1866;48.374;10.766;2023-04-24T11:58:55;103.20;;;5.97;;
3700;SDS011;1866;48.374;10.766;2023-04-24T12:01:21;99.47;;;5.30;;
3700;SDS011;1866;48.374;10.766;2023-04-24T12:03:49;106.33;;;6.83;;
3700;SDS011;1866;48.374;10.766;2023-04-24T12:06:16;98.43;;;5.30;;
3700;SDS011;1866;48.374;10.766;2023-04-24T12:08:46;98.10;;;5.10;;
3700;SDS011;1866;48.374;10.766;2023-04-24T12:11:14;97.67;;;5.03;;
3700;SDS011;1866;48.374;10.766;2023-04-24T12:13:43;98.17;;;5.20;;
3700;SDS011;1866;48.374;10.766;2023-04-24T12:16:11;97.80;;;5.20;;
3700;SDS011;1866;48.374;10.766;2023-04-24T12:18:42;98.87;;;5.50;;
3700;SDS011;1866;48.374;10.766;2023-04-24T12:21:19;98.47;;;5.30;;
3700;SDS011;1866;48.374;10.766;2023-04-24T12:23:48;100.57;;;5.40;;
3700;SDS011;1866;48.374;10.766;2023-04-24T12:26:17;98.67;;;5.30;;
3700;SDS011;1866;48.374;10.766;2023-04-24T12:28:46;99.57;;;5.80;;
3700;SDS011;1866;48.374;10.766;2023-04-24T12:31:14;99.93;;;5.33;;
3700;SDS011;1866;48.374;10.766;2023-04-24T12:33:42;100.67;;;5.90;;
3700;SDS011;1866;48.374;10.766;2023-04-24T12:36:09;98.53;;;5.27;;
3700;SDS011;1866;48.374;10.766;2023-04-24T12:38:38;102.10;;;5.80;;
3700;SDS011;1866;48.374;10.766;2023-04-24T12:41:08;99.37;;;5.27;;
3700;SDS011;1866;48.374;10.766;2023-04-24T12:43:35;100.40;;;5.57;;
3700;SDS011;1866;48.374;10.766;2023-04-24T12:46:02;105.80;;;5.83;;
3700;SDS011;1866;48.374;10.766;2023-04-24T12:48:29;99.33;;;5.43;;
3700;SDS011;1866;48.374;10.766;2023-04-24T12:50:57;102.07;;;5.80;;
3700;SDS011;1866;48.374;10.766;2023-04-24T12:53:26;98.33;;;5.40;;
3700;SDS011;1866;48.374;10.766;2023-04-24T12:55:54;99.63;;;5.60;;
3700;SDS011;1866;48.374;10.766;2023-04-24T12:58:23;97.70;;;5.00;;
3700;SDS011;1866;48.374;10.766;2023-04-24T13:00:50;98.60;;;5.30;;
3700;SDS011;1866;48.374;10.766;2023-04-24T13:03:17;100.37;;;5.30;;
3700;SDS011;1866;48.374;10.766;2023-04-24T13:05:44;99.47;;;5.70;;
3700;SDS011;1866;48.374;10.766;2023-04-24T13:08:11;99.00;;;5.10;;
3700;SDS011;1866;48.374;10.766;2023-04-24T13:10:39;99.50;;;5.23;;
3700;SDS011;1866;48.374;10.766;2023-04-24T13:13:06;99.67;;;5.13;;
3700;SDS011;1866;48.374;10.766;2023-04-24T13:15:35;98.97;;;5.00;;
3700;SDS011;1866;48.374;10.766;2023-04-24T13:18:02;97.97;;;4.90;;
3700;SDS011;1866;48.374;10.766;2023-04-24T13:20:29;98.37;;;4.77;;
3700;SDS011;1866;48.374;10.766;2023-04-24T13:22:56;96.80;;;5.00;;
3700;SDS011;1866;48.374;10.766;2023-04-24T13:25:23;104.13;;;6.70;;
3700;SDS011;1866;48.374;10.766;2023-04-24T13:27:51;101.03;;;6.33;;
3700;SDS011;1866;48.374;10.766;2023-04-24T13:30:18;102.50;;;6.30;;
3700;SDS011;1866;48.374;10.766;2023-04-24T13:32:46;104.47;;;6.67;;
3700;SDS011;1866;48.374;10.766;2023-04-24T13:35:13;99.47;;;5.80;;
3700;SDS011;1866;48.374;10.766;2023-04-24T13:37:40;99.20;;;5.13;;
3700;SDS011;1866;48.374;10.766;2023-04-24T13:40:07;101.13;;;5.20;;
3700;SDS011;1866;48.374;10.766;2023-04-24T13:42:35;98.43;;;5.30;;
3700;SDS011;1866;48.374;10.766;2023-04-24T13:45:02;99.90;;;5.30;;
3700;SDS011;1866;48.374;10.766;2023-04-24T13:47:30;99.20;;;5.30;;
3700;SDS011;1866;48.374;10.766;2023-04-24T13:49:58;98.17;;;5.00;;
3700;SDS011;1866;48.374;10.766;2023-04-24T13:52:25;100.53;;;5.23;;
3700;SDS011;1866;48.374;10.766;2023-04-24T13:54:51;102.57;;;5.30;;
3700;SDS011;1866;48.374;10.766;2023-04-24T13:57:18;101.60;;;5.33;;
3700;SDS011;1866;48.374;10.766;2023-04-24T13:59:48;98.63;;;5.10;;
3700;SDS011;1866;48.374;10.766;2023-04-24T14:02:15;101.77;;;5.30;;
3700;SDS011;1866;48.374;10.766;2023-04-24T14:04:42;98.07;;;5.00;;
3700;SDS011;1866;48.374;10.766;2023-04-24T14:07:10;97.67;;;5.13;;
3700;SDS011;1866;48.374;10.766;2023-04-24T14:09:37;97.70;;;5.27;;
3700;SDS011;1866;48.374;10.766;2023-04-24T14:12:04;97.90;;;5.13;;
3700;SDS011;1866;48.374;10.766;2023-04-24T14:14:31;97.70;;;5.00;;
3700;SDS011;1866;48.374;10.766;2023-04-24T14:16:58;97.90;;;5.03;;
3700;SDS011;1866;48.374;10.766;2023-04-24T14:19:25;97.50;;;5.10;;
3700;SDS011;1866;48.374;10.766;2023-04-24T14:21:52;97.77;;;5.17;;
3700;SDS011;1866;48.374;10.766;2023-04-24T14:24:22;98.30;;;5.10;;
3700;SDS011;1866;48.374;10.766;2023-04-24T14:26:48;98.33;;;5.00;;
3700;SDS011;1866;48.374;10.766;2023-04-24T14:29:15;98.20;;;5.10;;
3700;SDS011;1866;48.374;10.766;2023-04-24T14:31:42;98.50;;;5.00;;
3700;SDS011;1866;48.374;10.766;2023-04-24T14:34:09;102.43;;;5.20;;
3700;SDS011;1866;48.374;10.766;2023-04-24T14:36:36;98.60;;;5.33;;
3700;SDS011;1866;48.374;10.766;2023-04-24T14:39:03;98.57;;;5.03;;
3700;SDS011;1866;48.374;10.766;2023-04-24T14:41:33;100.60;;;4.90;;
3700;SDS011;1866;48.374;10.766;2023-04-24T14:44:00;98.83;;;5.20;;
3700;SDS011;1866;48.374;10.766;2023-04-24T14:46:28;97.03;;;4.87;;
3700;SDS011;1866;48.374;10.766;2023-04-24T14:48:55;98.30;;;5.10;;
3700;SDS011;1866;48.374;10.766;2023-04-24T14:51:22;97.70;;;4.90;;